Time,TemperatureF,DewpointF,PressureIn,WindDirection,WindDirectionDegrees,WindSpeedMPH,WindSpeedGustMPH,Humidity,HourlyPrecipIn,Conditions,Clouds,dailyrainin,SoftwareType,DateUTC
2013-05-06 00:04:00,52.7,49.8,30.04,NNW,338,2.2,4.5,90,0.00,,,0.00,pywws,2013-05-05 23:04:00,
2013-05-06 00:09:00,52.5,50.0,30.04,North,0,2.2,5.4,91,0.00,,,0.00,pywws,2013-05-05 23:09:00,
2013-05-06 00:14:00,52.5,50.0,30.04,NW,315,0.7,2.2,91,0.00,,,0.00,pywws,2013-05-05 23:14:00,
2013-05-06 00:19:00,52.3,49.8,30.04,North,0,1.6,3.8,91,0.00,,,0.00,pywws,2013-05-05 23:19:00,
2013-05-06 00:24:00,52.3,49.8,30.04,South,180,1.6,3.8,91,0.00,,,0.00,pywws,2013-05-05 23:24:00,
2013-05-06 00:29:00,52.5,50.0,30.04,NW,315,0.7,6.0,91,0.00,,,0.00,pywws,2013-05-05 23:29:00,
2013-05-06 00:34:00,52.7,49.8,30.04,NW,315,3.8,6.9,90,0.00,,,0.00,pywws,2013-05-05 23:34:00,
2013-05-06 00:39:00,52.7,49.8,30.04,NW,315,3.8,7.6,90,0.00,,,0.00,pywws,2013-05-05 23:39:00,
2013-05-06 00:44:00,52.7,49.8,30.03,NW,315,2.2,4.5,90,0.00,,,0.00,pywws,2013-05-05 23:44:00,
2013-05-06 00:49:00,52.5,49.7,30.03,NW,315,3.8,9.2,90,0.00,,,0.00,pywws,2013-05-05 23:49:00,
2013-05-06 00:54:00,52.5,50.0,30.03,West,270,3.1,6.9,91,0.00,,,0.00,pywws,2013-05-05 23:54:00,
2013-05-06 01:04:00,52.5,49.7,30.03,NW,315,3.8,6.0,90,0.00,,,0.00,pywws,2013-05-06 00:04:00,
2013-05-06 01:09:00,52.5,49.7,30.03,NW,315,1.6,3.8,90,0.00,,,0.00,pywws,2013-05-06 00:09:00,
2013-05-06 01:14:00,52.5,49.7,30.03,West,270,2.2,6.0,90,0.00,,,0.00,pywws,2013-05-06 00:14:00,
2013-05-06 01:19:00,52.5,49.7,30.03,NW,315,3.1,7.6,90,0.00,,,0.00,pywws,2013-05-06 00:19:00,
2013-05-06 01:24:00,52.3,49.5,30.03,NW,315,3.1,9.2,90,0.00,,,0.00,pywws,2013-05-06 00:24:00,
2013-05-06 01:29:00,52.3,49.8,30.03,NW,315,2.2,3.1,91,0.00,,,0.00,pywws,2013-05-06 00:29:00,
2013-05-06 01:34:00,52.3,49.8,30.03,NW,315,1.6,4.5,91,0.00,,,0.00,pywws,2013-05-06 00:34:00,
2013-05-06 01:39:00,52.2,49.6,30.03,North,0,1.6,3.8,91,0.00,,,0.00,pywws,2013-05-06 00:39:00,
2013-05-06 01:44:00,52.2,49.6,30.03,NW,315,0.7,3.1,91,0.00,,,0.00,pywws,2013-05-06 00:44:00,
2013-05-06 01:49:00,52.2,49.6,30.03,NW,315,1.6,3.8,91,0.00,,,0.00,pywws,2013-05-06 00:49:00,
2013-05-06 01:54:00,52.2,49.6,30.03,NW,315,0.7,3.8,91,0.00,,,0.00,pywws,2013-05-06 00:54:00,
2013-05-06 02:04:00,52.2,49.6,30.03,NW,315,1.6,4.5,91,0.00,,,0.00,pywws,2013-05-06 01:04:00,
2013-05-06 02:09:00,52.0,49.4,30.03,WNW,292,4.5,8.3,91,0.00,,,0.00,pywws,2013-05-06 01:09:00,
2013-05-06 02:14:00,51.8,49.3,30.02,NW,315,3.8,6.0,91,0.00,,,0.00,pywws,2013-05-06 01:14:00,
2013-05-06 02:19:00,51.8,49.5,30.03,West,270,3.8,6.9,92,0.00,,,0.00,pywws,2013-05-06 01:19:00,
2013-05-06 02:24:00,51.8,49.3,30.03,SSW,202,3.1,6.0,91,0.00,,,0.00,pywws,2013-05-06 01:24:00,
2013-05-06 02:29:00,51.6,49.4,30.02,NW,315,3.1,9.8,92,0.00,,,0.00,pywws,2013-05-06 01:29:00,
2013-05-06 02:34:00,51.6,49.4,30.03,North,0,2.2,5.4,92,0.00,,,0.00,pywws,2013-05-06 01:34:00,
2013-05-06 02:39:00,51.6,49.4,30.02,North,0,3.1,7.6,92,0.00,,,0.00,pywws,2013-05-06 01:39:00,
2013-05-06 02:44:00,51.6,49.4,30.02,North,0,2.2,4.5,92,0.00,,,0.00,pywws,2013-05-06 01:44:00,
2013-05-06 02:49:00,51.4,49.2,30.02,NW,315,3.8,6.9,92,0.00,,,0.00,pywws,2013-05-06 01:49:00,
2013-05-06 02:54:00,51.6,49.4,30.02,NW,315,2.2,5.4,92,0.00,,,0.00,pywws,2013-05-06 01:54:00,
2013-05-06 03:04:00,51.4,49.2,30.02,North,0,2.2,5.4,92,0.00,,,0.00,pywws,2013-05-06 02:04:00,
2013-05-06 03:09:00,51.3,49.0,30.03,NW,315,0.7,3.8,92,0.00,,,0.00,pywws,2013-05-06 02:09:00,
2013-05-06 03:14:00,51.3,49.0,30.03,West,270,1.6,3.8,92,0.00,,,0.00,pywws,2013-05-06 02:14:00,
2013-05-06 03:19:00,51.3,49.0,30.03,NW,315,0.7,2.2,92,0.00,,,0.00,pywws,2013-05-06 02:19:00,
2013-05-06 03:24:00,51.1,49.1,30.03,North,0,0.7,3.1,93,0.00,,,0.00,pywws,2013-05-06 02:24:00,
2013-05-06 03:29:00,50.7,48.8,30.02,NW,315,2.2,3.1,93,0.00,,,0.00,pywws,2013-05-06 02:29:00,
2013-05-06 03:34:00,50.7,49.1,30.02,North,0,0.7,2.2,94,0.00,,,0.00,pywws,2013-05-06 02:34:00,
2013-05-06 03:39:00,50.5,48.9,30.03,NW,315,2.2,4.5,94,0.00,,,0.00,pywws,2013-05-06 02:39:00,
2013-05-06 03:44:00,50.7,49.1,30.02,NW,315,2.2,6.9,94,0.00,,,0.00,pywws,2013-05-06 02:44:00,
2013-05-06 03:49:00,50.5,48.9,30.02,NW,315,2.2,4.5,94,0.00,,,0.00,pywws,2013-05-06 02:49:00,
2013-05-06 03:54:00,50.5,48.9,30.02,NW,315,3.1,4.5,94,0.00,,,0.00,pywws,2013-05-06 02:54:00,
2013-05-06 04:04:00,50.5,48.9,30.03,NE,45,1.6,3.1,94,0.00,,,0.00,pywws,2013-05-06 03:04:00,
2013-05-06 04:09:00,50.7,49.1,30.02,West,270,1.6,4.5,94,0.00,,,0.00,pywws,2013-05-06 03:09:00,
2013-05-06 04:14:00,50.7,49.1,30.02,NW,315,2.2,5.4,94,0.00,,,0.00,pywws,2013-05-06 03:14:00,
2013-05-06 04:19:00,50.5,48.9,30.02,North,0,0.7,5.4,94,0.00,,,0.00,pywws,2013-05-06 03:19:00,
2013-05-06 04:24:00,50.5,48.9,30.02,SE,135,1.6,3.8,94,0.00,,,0.00,pywws,2013-05-06 03:24:00,
2013-05-06 04:29:00,50.5,48.9,30.02,NNW,338,0.7,3.1,94,0.00,,,0.00,pywws,2013-05-06 03:29:00,
2013-05-06 04:34:00,50.5,48.9,30.02,NW,315,0.7,3.1,94,0.00,,,0.00,pywws,2013-05-06 03:34:00,
2013-05-06 04:39:00,50.5,48.9,30.02,NE,45,0.7,3.1,94,0.00,,,0.00,pywws,2013-05-06 03:39:00,
2013-05-06 04:44:00,50.5,49.2,30.02,North,-999,0.0,1.6,95,0.00,,,0.00,pywws,2013-05-06 03:44:00,
2013-05-06 04:49:00,50.5,49.2,30.01,NW,315,1.6,5.4,95,0.00,,,0.00,pywws,2013-05-06 03:49:00,
2013-05-06 04:54:00,50.7,49.1,30.02,NW,315,1.6,3.1,94,0.00,,,0.00,pywws,2013-05-06 03:54:00,
2013-05-06 05:04:00,50.9,49.2,30.02,North,-999,3.8,6.9,94,0.00,,,0.00,pywws,2013-05-06 04:04:00,
2013-05-06 05:09:00,50.9,49.2,30.02,West,270,1.6,5.4,94,0.00,,,0.00,pywws,2013-05-06 04:09:00,
2013-05-06 05:14:00,50.9,49.2,30.02,NW,315,1.6,4.5,94,0.00,,,0.00,pywws,2013-05-06 04:14:00,
2013-05-06 05:19:00,50.9,49.2,30.02,NW,315,1.6,3.8,94,0.00,,,0.00,pywws,2013-05-06 04:19:00,
2013-05-06 05:24:00,51.1,49.1,30.02,West,270,0.7,3.1,93,0.00,,,0.00,pywws,2013-05-06 04:24:00,
2013-05-06 05:29:00,51.1,49.1,30.02,NW,315,1.6,3.8,93,0.00,,,0.00,pywws,2013-05-06 04:29:00,
2013-05-06 05:34:00,51.1,49.1,30.02,North,-999,0.0,1.6,93,0.00,,,0.00,pywws,2013-05-06 04:34:00,
2013-05-06 05:39:00,51.1,49.4,30.02,West,270,0.7,2.2,94,0.00,,,0.00,pywws,2013-05-06 04:39:00,
2013-05-06 05:44:00,51.1,49.4,30.02,NE,45,0.7,2.2,94,0.00,,,0.00,pywws,2013-05-06 04:44:00,
2013-05-06 05:49:00,51.1,49.1,30.02,North,-999,0.0,1.6,93,0.00,,,0.00,pywws,2013-05-06 04:49:00,
2013-05-06 05:54:00,51.1,49.4,30.02,NW,315,0.7,2.2,94,0.00,,,0.00,pywws,2013-05-06 04:54:00,
2013-05-06 06:04:00,51.1,49.1,30.03,North,-999,0.0,1.6,93,0.00,,,0.00,pywws,2013-05-06 05:04:00,
2013-05-06 06:09:00,51.3,49.6,30.02,North,-999,0.0,1.6,94,0.00,,,0.00,pywws,2013-05-06 05:09:00,
2013-05-06 06:14:00,51.3,49.6,30.03,NE,45,0.7,1.6,94,0.00,,,0.00,pywws,2013-05-06 05:14:00,
2013-05-06 06:19:00,51.6,49.9,30.03,North,-999,0.0,0.7,94,0.00,,,0.00,pywws,2013-05-06 05:19:00,
2013-05-06 06:24:00,52.2,50.8,30.02,North,-999,0.0,0.7,95,0.00,,,0.00,pywws,2013-05-06 05:24:00,
2013-05-06 06:29:00,53.1,51.7,30.02,North,-999,0.0,0.0,95,0.00,,,0.00,pywws,2013-05-06 05:29:00,
2013-05-06 06:34:00,53.4,51.4,30.02,SE,135,0.7,6.9,93,0.00,,,0.00,pywws,2013-05-06 05:34:00,
2013-05-06 06:39:00,53.4,50.6,30.02,NNW,338,0.7,3.1,90,0.00,,,0.00,pywws,2013-05-06 05:39:00,
2013-05-06 06:44:00,53.2,50.4,30.02,North,-999,0.0,1.6,90,0.00,,,0.00,pywws,2013-05-06 05:44:00,
2013-05-06 06:49:00,53.2,50.1,30.03,NNW,338,1.6,3.1,89,0.00,,,0.00,pywws,2013-05-06 05:49:00,
2013-05-06 06:54:00,53.4,50.3,30.03,North,-999,0.0,1.6,89,0.00,,,0.00,pywws,2013-05-06 05:54:00,
2013-05-06 07:04:00,53.4,50.3,30.03,NW,315,1.6,3.1,89,0.00,,,0.00,pywws,2013-05-06 06:04:00,
2013-05-06 07:09:00,53.2,50.1,30.02,North,0,1.6,3.8,89,0.00,,,0.00,pywws,2013-05-06 06:09:00,
2013-05-06 07:14:00,53.1,49.9,30.03,NW,315,1.6,3.1,89,0.00,,,0.00,pywws,2013-05-06 06:14:00,
2013-05-06 07:19:00,53.1,49.9,30.02,NW,315,1.6,4.5,89,0.00,,,0.00,pywws,2013-05-06 06:19:00,
2013-05-06 07:24:00,53.1,49.6,30.02,North,0,0.7,3.8,88,0.00,,,0.00,pywws,2013-05-06 06:24:00,
2013-05-06 07:29:00,53.2,50.1,30.02,NW,315,2.2,6.0,89,0.00,,,0.00,pywws,2013-05-06 06:29:00,
2013-05-06 07:34:00,53.2,49.8,30.03,North,0,1.6,3.8,88,0.00,,,0.00,pywws,2013-05-06 06:34:00,
2013-05-06 07:39:00,53.2,50.1,30.02,South,180,2.2,3.8,89,0.00,,,0.00,pywws,2013-05-06 06:39:00,
2013-05-06 07:44:00,53.2,49.8,30.03,SE,135,0.7,1.6,88,0.00,,,0.00,pywws,2013-05-06 06:44:00,
2013-05-06 07:49:00,53.2,49.8,30.03,North,0,1.6,4.5,88,0.00,,,0.00,pywws,2013-05-06 06:49:00,
2013-05-06 07:54:00,53.6,50.1,30.02,North,0,1.6,3.8,88,0.00,,,0.00,pywws,2013-05-06 06:54:00,
2013-05-06 08:04:00,53.8,50.3,30.02,North,0,0.7,3.1,88,0.00,,,0.00,pywws,2013-05-06 07:04:00,
2013-05-06 08:09:00,54.3,50.2,30.02,NW,315,2.2,5.4,86,0.00,,,0.00,pywws,2013-05-06 07:09:00,
2013-05-06 08:14:00,54.7,50.6,30.02,NW,315,2.2,3.8,86,0.00,,,0.00,pywws,2013-05-06 07:14:00,
2013-05-06 08:19:00,55.0,50.6,30.03,NW,315,0.7,3.1,85,0.00,,,0.00,pywws,2013-05-06 07:19:00,
2013-05-06 08:24:00,55.4,51.0,30.03,North,-999,0.0,2.2,85,0.00,,,0.00,pywws,2013-05-06 07:24:00,
2013-05-06 08:29:00,56.3,51.2,30.03,North,0,1.6,3.1,83,0.00,,,0.00,pywws,2013-05-06 07:29:00,
2013-05-06 08:34:00,57.2,51.8,30.03,West,270,0.7,2.2,82,0.00,,,0.00,pywws,2013-05-06 07:34:00,
2013-05-06 08:39:00,57.2,51.4,30.02,North,-999,0.0,1.6,81,0.00,,,0.00,pywws,2013-05-06 07:39:00,
2013-05-06 08:44:00,57.0,50.6,30.02,South,180,3.1,6.9,79,0.00,,,0.00,pywws,2013-05-06 07:44:00,
2013-05-06 08:49:00,56.7,50.6,30.02,NW,315,2.2,6.0,80,0.00,,,0.00,pywws,2013-05-06 07:49:00,
2013-05-06 08:54:00,56.1,50.4,30.03,NW,315,4.5,7.6,81,0.00,,,0.00,pywws,2013-05-06 07:54:00,
2013-05-06 09:04:00,55.8,50.3,30.02,NNW,338,3.8,6.9,82,0.00,,,0.00,pywws,2013-05-06 08:04:00,
2013-05-06 09:09:00,55.4,50.3,30.02,SE,135,2.2,5.4,83,0.00,,,0.00,pywws,2013-05-06 08:09:00,
2013-05-06 09:14:00,55.6,50.5,30.02,North,0,2.2,6.0,83,0.00,,,0.00,pywws,2013-05-06 08:14:00,
2013-05-06 09:19:00,55.6,50.5,30.03,North,0,1.6,2.2,83,0.00,,,0.00,pywws,2013-05-06 08:19:00,
2013-05-06 09:24:00,55.8,50.7,30.03,NW,315,2.2,6.9,83,0.00,,,0.00,pywws,2013-05-06 08:24:00,
2013-05-06 09:29:00,55.6,50.5,30.03,NW,315,3.1,5.4,83,0.00,,,0.00,pywws,2013-05-06 08:29:00,
2013-05-06 09:34:00,55.4,50.6,30.03,NW,315,1.6,3.8,84,0.00,,,0.00,pywws,2013-05-06 08:34:00,
2013-05-06 09:39:00,55.6,50.8,30.03,NW,315,2.2,6.0,84,0.00,,,0.00,pywws,2013-05-06 08:39:00,
2013-05-06 09:44:00,55.8,50.7,30.03,North,0,3.1,5.4,83,0.00,,,0.00,pywws,2013-05-06 08:44:00,
2013-05-06 09:49:00,56.1,51.0,30.03,NW,315,3.8,6.9,83,0.00,,,0.00,pywws,2013-05-06 08:49:00,
2013-05-06 09:54:00,56.1,51.0,30.04,North,0,2.2,4.5,83,0.00,,,0.00,pywws,2013-05-06 08:54:00,
2013-05-06 10:04:00,56.3,50.9,30.04,West,270,2.2,5.4,82,0.00,,,0.00,pywws,2013-05-06 09:04:00,
2013-05-06 10:09:00,56.1,51.0,30.04,NNW,338,2.2,4.5,83,0.00,,,0.00,pywws,2013-05-06 09:09:00,
2013-05-06 10:14:00,56.1,51.0,30.04,NW,315,1.6,3.1,83,0.00,,,0.00,pywws,2013-05-06 09:14:00,
2013-05-06 10:19:00,56.1,51.0,30.04,NW,315,3.1,5.4,83,0.00,,,0.00,pywws,2013-05-06 09:19:00,
2013-05-06 10:24:00,56.1,51.0,30.04,NW,315,1.6,3.8,83,0.00,,,0.00,pywws,2013-05-06 09:24:00,
2013-05-06 10:29:00,56.8,51.7,30.04,North,0,0.7,3.1,83,0.00,,,0.00,pywws,2013-05-06 09:29:00,
2013-05-06 10:34:00,57.7,51.9,30.04,NW,315,3.1,6.0,81,0.00,,,0.00,pywws,2013-05-06 09:34:00,
2013-05-06 10:39:00,58.1,52.0,30.03,NW,315,1.6,3.8,80,0.00,,,0.00,pywws,2013-05-06 09:39:00,
2013-05-06 10:44:00,58.5,52.3,30.04,NW,315,2.2,5.4,80,0.00,,,0.00,pywws,2013-05-06 09:44:00,
2013-05-06 10:49:00,59.4,52.8,30.04,NW,315,2.2,4.5,79,0.00,,,0.00,pywws,2013-05-06 09:49:00,
2013-05-06 10:54:00,59.9,52.7,30.04,NW,315,1.6,5.4,77,0.00,,,0.00,pywws,2013-05-06 09:54:00,
2013-05-06 11:04:00,60.1,53.2,30.04,NW,315,2.2,5.4,78,0.00,,,0.00,pywws,2013-05-06 10:04:00,
2013-05-06 11:09:00,59.9,52.3,30.04,WNW,292,3.1,9.8,76,0.00,,,0.00,pywws,2013-05-06 10:09:00,
2013-05-06 11:14:00,59.0,51.8,30.04,South,180,3.8,6.0,77,0.00,,,0.00,pywws,2013-05-06 10:14:00,
2013-05-06 11:19:00,59.7,52.8,30.04,North,0,2.2,7.6,78,0.00,,,0.00,pywws,2013-05-06 10:19:00,
2013-05-06 11:24:00,61.9,53.5,30.04,NW,315,3.8,8.3,74,0.00,,,0.00,pywws,2013-05-06 10:24:00,
2013-05-06 11:29:00,62.8,54.4,30.04,NW,315,0.7,1.6,74,0.00,,,0.00,pywws,2013-05-06 10:29:00,
2013-05-06 11:34:00,62.8,52.8,30.04,NW,315,4.5,10.7,70,0.00,,,0.00,pywws,2013-05-06 10:34:00,
2013-05-06 11:39:00,62.4,53.6,30.04,North,-999,0.0,3.1,73,0.00,,,0.00,pywws,2013-05-06 10:39:00,
2013-05-06 11:44:00,62.8,52.8,30.04,West,270,4.5,8.3,70,0.00,,,0.00,pywws,2013-05-06 10:44:00,
2013-05-06 11:49:00,61.7,53.3,30.05,NW,315,2.2,6.0,74,0.00,,,0.00,pywws,2013-05-06 10:49:00,
2013-05-06 11:54:00,61.3,53.0,30.04,NW,315,3.8,8.3,74,0.00,,,0.00,pywws,2013-05-06 10:54:00,
2013-05-06 12:04:00,61.2,52.4,30.04,SW,225,3.1,6.0,73,0.00,,,0.00,pywws,2013-05-06 11:04:00,
2013-05-06 12:09:00,63.3,54.1,30.05,NW,315,1.6,4.5,72,0.00,,,0.00,pywws,2013-05-06 11:09:00,
2013-05-06 12:14:00,64.9,54.1,30.05,SW,225,3.8,6.9,68,0.00,,,0.00,pywws,2013-05-06 11:14:00,
2013-05-06 12:19:00,63.7,53.3,30.04,NW,315,4.5,9.8,69,0.00,,,0.00,pywws,2013-05-06 11:19:00,
2013-05-06 12:24:00,64.9,53.7,30.04,SW,225,4.5,9.2,67,0.00,,,0.00,pywws,2013-05-06 11:24:00,
2013-05-06 12:29:00,65.5,55.0,30.04,East,90,0.7,2.2,69,0.00,,,0.00,pywws,2013-05-06 11:29:00,
2013-05-06 12:34:00,65.5,53.8,30.04,North,0,2.2,4.5,66,0.00,,,0.00,pywws,2013-05-06 11:34:00,
2013-05-06 12:39:00,63.5,52.7,30.04,NW,315,3.1,8.3,68,0.00,,,0.00,pywws,2013-05-06 11:39:00,
2013-05-06 12:44:00,62.8,52.8,30.04,NW,315,3.8,7.6,70,0.00,,,0.00,pywws,2013-05-06 11:44:00,
2013-05-06 12:49:00,61.7,52.6,30.04,NNW,338,2.2,4.5,72,0.00,,,0.00,pywws,2013-05-06 11:49:00,
2013-05-06 12:54:00,63.7,54.5,30.04,North,0,0.7,3.1,72,0.00,,,0.00,pywws,2013-05-06 11:54:00,
2013-05-06 13:04:00,65.8,53.7,30.03,NNW,338,3.8,7.6,65,0.00,,,0.00,pywws,2013-05-06 12:04:00,
2013-05-06 13:09:00,66.6,54.0,30.04,North,0,4.5,10.7,64,0.00,,,0.00,pywws,2013-05-06 12:09:00,
2013-05-06 13:14:00,64.8,53.5,30.04,NW,315,0.7,4.5,67,0.00,,,0.00,pywws,2013-05-06 12:14:00,
2013-05-06 13:19:00,65.3,54.1,30.03,North,0,4.5,9.2,67,0.00,,,0.00,pywws,2013-05-06 12:19:00,
2013-05-06 13:24:00,65.3,54.5,30.03,NW,315,0.7,2.2,68,0.00,,,0.00,pywws,2013-05-06 12:24:00,
2013-05-06 13:29:00,66.0,53.9,30.03,NW,315,3.8,8.3,65,0.00,,,0.00,pywws,2013-05-06 12:29:00,
2013-05-06 13:34:00,66.0,54.7,30.03,NE,45,2.2,3.8,67,0.00,,,0.00,pywws,2013-05-06 12:34:00,
2013-05-06 13:39:00,66.9,54.8,30.03,WSW,248,1.6,5.4,65,0.00,,,0.00,pywws,2013-05-06 12:39:00,
2013-05-06 13:44:00,66.6,54.0,30.04,NW,315,5.4,10.7,64,0.00,,,0.00,pywws,2013-05-06 12:44:00,
2013-05-06 13:49:00,67.6,54.1,30.03,North,0,3.8,8.3,62,0.00,,,0.00,pywws,2013-05-06 12:49:00,
2013-05-06 13:54:00,65.8,53.3,30.03,North,0,5.4,12.1,64,0.00,,,0.00,pywws,2013-05-06 12:54:00,
2013-05-06 14:04:00,63.7,52.9,30.03,North,0,3.1,6.0,68,0.00,,,0.00,pywws,2013-05-06 13:04:00,
2013-05-06 14:09:00,61.7,52.6,30.03,NE,45,4.5,7.6,72,0.00,,,0.00,pywws,2013-05-06 13:09:00,
2013-05-06 14:14:00,61.7,53.0,30.03,North,0,2.2,3.8,73,0.00,,,0.00,pywws,2013-05-06 13:14:00,
2013-05-06 14:19:00,61.7,52.6,30.03,NW,315,4.5,9.8,72,0.00,,,0.00,pywws,2013-05-06 13:19:00,
2013-05-06 14:24:00,62.2,52.7,30.03,NW,315,3.8,7.6,71,0.00,,,0.00,pywws,2013-05-06 13:24:00,
2013-05-06 14:29:00,62.6,53.1,30.03,NW,315,3.1,6.9,71,0.00,,,0.00,pywws,2013-05-06 13:29:00,
2013-05-06 14:34:00,62.8,53.2,30.03,NW,315,3.1,5.4,71,0.00,,,0.00,pywws,2013-05-06 13:34:00,
2013-05-06 14:39:00,62.6,53.1,30.03,NW,315,3.8,5.4,71,0.00,,,0.00,pywws,2013-05-06 13:39:00,
2013-05-06 14:44:00,62.1,52.9,30.03,NW,315,2.2,5.4,72,0.00,,,0.00,pywws,2013-05-06 13:44:00,
2013-05-06 14:49:00,62.2,53.5,30.03,North,0,1.6,4.5,73,0.00,,,0.00,pywws,2013-05-06 13:49:00,
2013-05-06 14:54:00,62.2,53.1,30.03,SW,225,1.6,5.4,72,0.00,,,0.00,pywws,2013-05-06 13:54:00,
2013-05-06 15:04:00,62.4,53.3,30.03,NW,315,3.8,7.6,72,0.00,,,0.00,pywws,2013-05-06 14:04:00,
2013-05-06 15:09:00,64.0,53.3,30.03,NW,315,2.2,3.8,68,0.00,,,0.00,pywws,2013-05-06 14:09:00,
2013-05-06 15:14:00,64.4,53.2,30.03,NNW,338,3.8,7.6,67,0.00,,,0.00,pywws,2013-05-06 14:14:00,
2013-05-06 15:19:00,64.0,54.1,30.03,NW,315,2.2,4.5,70,0.00,,,0.00,pywws,2013-05-06 14:19:00,
2013-05-06 15:24:00,63.5,53.5,30.03,NW,315,3.1,4.5,70,0.00,,,0.00,pywws,2013-05-06 14:24:00,
2013-05-06 15:29:00,62.6,53.1,30.03,North,0,3.8,7.6,71,0.00,,,0.00,pywws,2013-05-06 14:29:00,
2013-05-06 15:34:00,62.6,52.7,30.03,NW,315,5.4,10.7,70,0.00,,,0.00,pywws,2013-05-06 14:34:00,
2013-05-06 15:39:00,62.2,53.1,30.03,West,270,3.1,7.6,72,0.00,,,0.00,pywws,2013-05-06 14:39:00,
2013-05-06 15:44:00,62.4,53.3,30.03,North,0,2.2,4.5,72,0.00,,,0.00,pywws,2013-05-06 14:44:00,
2013-05-06 15:49:00,62.8,53.2,30.03,NW,315,1.6,4.5,71,0.00,,,0.00,pywws,2013-05-06 14:49:00,
2013-05-06 15:54:00,63.9,53.5,30.03,North,0,4.5,8.3,69,0.00,,,0.00,pywws,2013-05-06 14:54:00,
2013-05-06 16:04:00,64.9,54.1,30.03,NW,315,3.1,7.6,68,0.00,,,0.00,pywws,2013-05-06 15:04:00,
2013-05-06 16:09:00,62.1,52.9,30.03,North,0,5.4,10.7,72,0.00,,,0.00,pywws,2013-05-06 15:09:00,
2013-05-06 16:14:00,61.5,52.8,30.03,NW,315,4.5,8.3,73,0.00,,,0.00,pywws,2013-05-06 15:14:00,
2013-05-06 16:19:00,61.2,53.2,30.03,NW,315,2.2,3.8,75,0.00,,,0.00,pywws,2013-05-06 15:19:00,
2013-05-06 16:24:00,61.9,53.5,30.03,NW,315,2.2,5.4,74,0.00,,,0.00,pywws,2013-05-06 15:24:00,
2013-05-06 16:29:00,61.7,52.6,30.03,NW,315,3.8,7.6,72,0.00,,,0.00,pywws,2013-05-06 15:29:00,
2013-05-06 16:34:00,61.5,53.2,30.03,NW,315,1.6,3.1,74,0.00,,,0.00,pywws,2013-05-06 15:34:00,
2013-05-06 16:39:00,61.3,52.6,30.03,West,270,3.1,5.4,73,0.00,,,0.00,pywws,2013-05-06 15:39:00,
2013-05-06 16:44:00,61.2,52.8,30.03,NW,315,2.2,6.0,74,0.00,,,0.00,pywws,2013-05-06 15:44:00,
2013-05-06 16:49:00,61.0,52.6,30.03,NW,315,3.8,7.6,74,0.00,,,0.00,pywws,2013-05-06 15:49:00,
2013-05-06 16:54:00,61.0,52.6,30.03,North,0,3.1,6.9,74,0.00,,,0.00,pywws,2013-05-06 15:54:00,
2013-05-06 17:04:00,61.9,53.9,30.03,North,-999,0.0,1.6,75,0.00,,,0.00,pywws,2013-05-06 16:04:00,
2013-05-06 17:09:00,61.7,53.3,30.03,North,-999,0.0,1.6,74,0.00,,,0.00,pywws,2013-05-06 16:09:00,
2013-05-06 17:14:00,61.3,52.2,30.03,North,0,1.6,4.5,72,0.00,,,0.00,pywws,2013-05-06 16:14:00,
2013-05-06 17:19:00,61.3,52.6,30.03,NW,315,0.7,3.1,73,0.00,,,0.00,pywws,2013-05-06 16:19:00,
2013-05-06 17:24:00,61.0,52.6,30.03,North,0,4.5,7.6,74,0.00,,,0.00,pywws,2013-05-06 16:24:00,
2013-05-06 17:29:00,61.7,53.0,30.03,North,0,3.1,5.4,73,0.00,,,0.00,pywws,2013-05-06 16:29:00,
2013-05-06 17:34:00,61.2,52.4,30.03,NW,315,3.1,5.4,73,0.00,,,0.00,pywws,2013-05-06 16:34:00,
2013-05-06 17:39:00,60.8,52.8,30.02,North,0,2.2,5.4,75,0.00,,,0.00,pywws,2013-05-06 16:39:00,
2013-05-06 17:44:00,60.6,52.3,30.03,NW,315,3.1,6.0,74,0.00,,,0.00,pywws,2013-05-06 16:44:00,
2013-05-06 17:49:00,60.1,52.1,30.03,NW,315,3.1,6.9,75,0.00,,,0.00,pywws,2013-05-06 16:49:00,
2013-05-06 17:54:00,59.7,51.8,30.03,NW,315,3.8,6.0,75,0.00,,,0.00,pywws,2013-05-06 16:54:00,
2013-05-06 18:04:00,59.4,51.8,30.03,NW,315,2.2,5.4,76,0.00,,,0.00,pywws,2013-05-06 17:04:00,
2013-05-06 18:09:00,58.8,51.6,30.03,NW,315,3.1,6.0,77,0.00,,,0.00,pywws,2013-05-06 17:09:00,
2013-05-06 18:14:00,58.1,51.3,30.03,NW,315,1.6,5.4,78,0.00,,,0.00,pywws,2013-05-06 17:14:00,
2013-05-06 18:19:00,57.9,51.1,30.03,North,0,2.2,4.5,78,0.00,,,0.00,pywws,2013-05-06 17:19:00,
2013-05-06 18:24:00,57.7,51.3,30.03,North,0,0.7,3.1,79,0.00,,,0.00,pywws,2013-05-06 17:24:00,
2013-05-06 18:29:00,57.7,51.3,30.03,SW,225,1.6,3.1,79,0.00,,,0.00,pywws,2013-05-06 17:29:00,
2013-05-06 18:34:00,57.6,51.1,30.03,NW,315,1.6,3.1,79,0.00,,,0.00,pywws,2013-05-06 17:34:00,
2013-05-06 18:39:00,57.4,50.9,30.03,North,0,1.6,3.8,79,0.00,,,0.00,pywws,2013-05-06 17:39:00,
2013-05-06 18:44:00,57.2,51.1,30.03,North,0,2.2,3.8,80,0.00,,,0.00,pywws,2013-05-06 17:44:00,
2013-05-06 18:49:00,57.0,50.9,30.03,NW,315,1.6,6.0,80,0.00,,,0.00,pywws,2013-05-06 17:49:00,
2013-05-06 18:54:00,57.4,51.3,30.03,NW,315,0.7,3.1,80,0.00,,,0.00,pywws,2013-05-06 17:54:00,
2013-05-06 19:04:00,57.6,51.4,30.03,NW,315,1.6,3.8,80,0.00,,,0.00,pywws,2013-05-06 18:04:00,
2013-05-06 19:09:00,57.9,51.4,30.03,NW,315,1.6,3.1,79,0.00,,,0.00,pywws,2013-05-06 18:09:00,
2013-05-06 19:14:00,58.1,51.6,30.03,NNW,338,2.2,5.4,79,0.00,,,0.00,pywws,2013-05-06 18:14:00,
2013-05-06 19:19:00,58.1,51.6,30.03,North,0,2.2,4.5,79,0.00,,,0.00,pywws,2013-05-06 18:19:00,
2013-05-06 19:24:00,57.9,51.4,30.03,NW,315,3.1,6.0,79,0.00,,,0.00,pywws,2013-05-06 18:24:00,
2013-05-06 19:29:00,58.1,51.6,30.03,NE,45,2.2,4.5,79,0.00,,,0.00,pywws,2013-05-06 18:29:00,
2013-05-06 19:34:00,57.9,51.4,30.04,North,0,2.2,5.4,79,0.00,,,0.00,pywws,2013-05-06 18:34:00,
2013-05-06 19:39:00,57.7,51.3,30.03,NW,315,3.1,5.4,79,0.00,,,0.00,pywws,2013-05-06 18:39:00,
2013-05-06 19:44:00,57.6,51.4,30.04,WSW,248,3.1,6.9,80,0.00,,,0.00,pywws,2013-05-06 18:44:00,
2013-05-06 19:49:00,57.2,51.1,30.03,NW,315,3.1,6.0,80,0.00,,,0.00,pywws,2013-05-06 18:49:00,
2013-05-06 19:54:00,56.8,51.1,30.03,NW,315,1.6,4.5,81,0.00,,,0.00,pywws,2013-05-06 18:54:00,
2013-05-06 20:04:00,56.7,50.9,30.04,North,0,3.1,8.3,81,0.00,,,0.00,pywws,2013-05-06 19:04:00,
2013-05-06 20:09:00,56.1,50.7,30.04,North,0,3.1,4.5,82,0.00,,,0.00,pywws,2013-05-06 19:09:00,
2013-05-06 20:14:00,55.9,50.5,30.04,North,0,3.8,6.0,82,0.00,,,0.00,pywws,2013-05-06 19:14:00,
2013-05-06 20:19:00,55.8,50.3,30.04,NE,45,2.2,6.0,82,0.00,,,0.00,pywws,2013-05-06 19:19:00,
2013-05-06 20:24:00,55.6,50.2,30.04,East,90,0.7,3.1,82,0.00,,,0.00,pywws,2013-05-06 19:24:00,
2013-05-06 20:29:00,55.4,50.0,30.04,North,-999,0.0,2.2,82,0.00,,,0.00,pywws,2013-05-06 19:29:00,
2013-05-06 20:34:00,55.0,50.0,30.04,North,0,3.1,5.4,83,0.00,,,0.00,pywws,2013-05-06 19:34:00,
2013-05-06 20:39:00,54.9,50.1,30.04,NW,315,0.7,3.1,84,0.00,,,0.00,pywws,2013-05-06 19:39:00,
2013-05-06 20:44:00,54.5,49.8,30.04,North,0,0.7,2.2,84,0.00,,,0.00,pywws,2013-05-06 19:44:00,
2013-05-06 20:49:00,54.3,49.6,30.04,NW,315,3.1,4.5,84,0.00,,,0.00,pywws,2013-05-06 19:49:00,
2013-05-06 20:54:00,54.1,49.4,30.05,North,-999,0.0,2.2,84,0.00,,,0.00,pywws,2013-05-06 19:54:00,
2013-05-06 21:04:00,54.0,49.6,30.05,North,0,0.7,3.1,85,0.00,,,0.00,pywws,2013-05-06 20:04:00,
2013-05-06 21:09:00,53.6,49.2,30.06,NNW,338,0.7,1.6,85,0.00,,,0.00,pywws,2013-05-06 20:09:00,
2013-05-06 21:14:00,53.4,49.0,30.05,NW,315,0.7,3.1,85,0.00,,,0.00,pywws,2013-05-06 20:14:00,
2013-05-06 21:19:00,53.4,49.0,30.06,NW,315,1.6,3.8,85,0.00,,,0.00,pywws,2013-05-06 20:19:00,
2013-05-06 21:24:00,53.4,49.0,30.06,NW,315,0.7,2.2,85,0.00,,,0.00,pywws,2013-05-06 20:24:00,
2013-05-06 21:29:00,53.2,48.8,30.06,West,270,0.7,2.2,85,0.00,,,0.00,pywws,2013-05-06 20:29:00,
2013-05-06 21:34:00,53.1,48.7,30.06,North,-999,0.0,0.7,85,0.00,,,0.00,pywws,2013-05-06 20:34:00,
2013-05-06 21:39:00,52.7,48.3,30.06,North,-999,0.0,1.6,85,0.00,,,0.00,pywws,2013-05-06 20:39:00,
2013-05-06 21:44:00,52.5,48.5,30.06,North,-999,0.0,1.6,86,0.00,,,0.00,pywws,2013-05-06 20:44:00,
2013-05-06 21:49:00,52.3,48.6,30.06,NW,315,1.6,3.8,87,0.00,,,0.00,pywws,2013-05-06 20:49:00,
2013-05-06 21:54:00,52.3,48.6,30.06,North,0,0.7,3.1,87,0.00,,,0.00,pywws,2013-05-06 20:54:00,
2013-05-06 22:04:00,52.2,48.4,30.06,NW,315,0.7,3.1,87,0.00,,,0.00,pywws,2013-05-06 21:04:00,
2013-05-06 22:09:00,51.4,47.7,30.06,North,-999,0.0,1.6,87,0.00,,,0.00,pywws,2013-05-06 21:09:00,
2013-05-06 22:14:00,51.1,47.7,30.06,North,-999,0.0,0.7,88,0.00,,,0.00,pywws,2013-05-06 21:14:00,
2013-05-06 22:19:00,50.9,47.5,30.06,North,-999,0.0,0.7,88,0.00,,,0.00,pywws,2013-05-06 21:19:00,
2013-05-06 22:24:00,50.7,47.6,30.06,North,-999,0.0,1.6,89,0.00,,,0.00,pywws,2013-05-06 21:24:00,
2013-05-06 22:29:00,50.4,47.2,30.06,North,-999,0.0,0.7,89,0.00,,,0.00,pywws,2013-05-06 21:29:00,
2013-05-06 22:34:00,50.0,47.5,30.06,NW,315,0.7,2.2,91,0.00,,,0.00,pywws,2013-05-06 21:34:00,
2013-05-06 22:39:00,50.4,48.1,30.06,NW,315,0.7,2.2,92,0.00,,,0.00,pywws,2013-05-06 21:39:00,
2013-05-06 22:44:00,50.5,48.3,30.06,North,-999,0.0,1.6,92,0.00,,,0.00,pywws,2013-05-06 21:44:00,
2013-05-06 22:49:00,50.2,47.7,30.06,North,-999,0.0,0.7,91,0.00,,,0.00,pywws,2013-05-06 21:49:00,
2013-05-06 22:54:00,49.8,47.3,30.06,North,-999,0.0,0.7,91,0.00,,,0.00,pywws,2013-05-06 21:54:00,
2013-05-06 23:04:00,49.5,46.9,30.06,North,-999,0.0,0.0,91,0.00,,,0.00,pywws,2013-05-06 22:04:00,
2013-05-06 23:09:00,49.3,47.3,30.07,North,-999,0.0,0.0,93,0.00,,,0.00,pywws,2013-05-06 22:09:00,
2013-05-06 23:14:00,49.1,47.2,30.07,NW,315,0.7,2.2,93,0.00,,,0.00,pywws,2013-05-06 22:14:00,
2013-05-06 23:19:00,49.5,48.1,30.07,NW,315,1.6,3.1,95,0.00,,,0.00,pywws,2013-05-06 22:19:00,
2013-05-06 23:24:00,50.0,48.3,30.07,North,-999,0.0,3.1,94,0.00,,,0.00,pywws,2013-05-06 22:24:00,
2013-05-06 23:29:00,50.2,48.2,30.07,NW,315,0.7,2.2,93,0.00,,,0.00,pywws,2013-05-06 22:29:00,
2013-05-06 23:34:00,50.0,47.8,30.07,North,-999,0.0,0.7,92,0.00,,,0.00,pywws,2013-05-06 22:34:00,
2013-05-06 23:39:00,49.6,47.7,30.07,NE,45,1.6,3.1,93,0.00,,,0.00,pywws,2013-05-06 22:39:00,
2013-05-06 23:44:00,49.8,47.9,30.07,West,270,0.7,3.1,93,0.00,,,0.00,pywws,2013-05-06 22:44:00,
2013-05-06 23:49:00,49.8,47.9,30.07,North,-999,0.0,2.2,93,0.00,,,0.00,pywws,2013-05-06 22:49:00,
2013-05-06 23:54:00,49.6,47.4,30.07,North,-999,0.0,1.6,92,0.00,,,0.00,pywws,2013-05-06 22:54:00,